createdAt,value
2022-12-19T00:01:27.552Z,11.35
2022-12-19T00:03:58.502Z,10.57
2022-12-19T00:06:31.069Z,10.25
2022-12-19T00:09:08.246Z,11.68
2022-12-19T00:11:40.621Z,11.05
2022-12-19T00:14:11.211Z,8.65
2022-12-19T00:16:58.275Z,9.00
2022-12-19T00:19:33.098Z,9.68
2022-12-19T00:22:05.105Z,8.88
2022-12-19T00:25:01.134Z,9.00
2022-12-19T00:27:28.773Z,9.27
2022-12-19T00:29:59.287Z,8.80
2022-12-19T00:32:28.918Z,8.50
2022-12-19T00:35:05.105Z,7.78
2022-12-19T00:37:38.459Z,7.35
2022-12-19T00:40:18.333Z,8.43
2022-12-19T00:42:53.352Z,8.57
2022-12-19T00:45:36.975Z,8.00
2022-12-19T00:48:13.037Z,7.85
2022-12-19T00:50:44.414Z,8.23
2022-12-19T00:53:14.458Z,7.25
2022-12-19T00:55:45.004Z,8.60
2022-12-19T00:58:21.478Z,7.72
2022-12-19T01:00:49.605Z,7.55
2022-12-19T01:03:22.421Z,8.88
2022-12-19T01:06:15.089Z,8.88
2022-12-19T01:08:50.964Z,7.73
2022-12-19T01:11:43.593Z,9.00
2022-12-19T01:14:25.929Z,9.00
2022-12-19T01:16:59.877Z,9.00
2022-12-19T01:19:33.500Z,9.10
2022-12-19T01:22:09.816Z,8.90
2022-12-19T01:24:40.200Z,9.55
2022-12-19T01:27:12.728Z,9.93
2022-12-19T01:29:49.114Z,9.65
2022-12-19T01:32:23.905Z,9.25
2022-12-19T01:34:57.301Z,10.40
2022-12-19T01:37:42.178Z,9.75
2022-12-19T01:40:11.646Z,10.98
2022-12-19T01:42:43.898Z,10.45
2022-12-19T01:45:40.740Z,11.70
2022-12-19T01:48:53.992Z,9.73
2022-12-19T01:51:28.683Z,9.00
2022-12-19T01:54:09.914Z,9.43
2022-12-19T01:56:59.147Z,9.13
2022-12-19T01:59:45.908Z,9.85
2022-12-19T02:02:33.608Z,9.43
2022-12-19T02:05:05.406Z,12.55
2022-12-19T02:07:38.731Z,11.90
2022-12-19T02:10:09.827Z,10.90
2022-12-19T02:12:52.249Z,10.63
2022-12-19T02:15:41.465Z,10.40
2022-12-19T02:18:54.053Z,9.55
2022-12-19T02:21:30.423Z,9.48
2022-12-19T02:24:19.336Z,10.57
2022-12-19T02:27:05.882Z,9.00
2022-12-19T02:30:16.551Z,12.03
2022-12-19T02:33:12.201Z,9.25
2022-12-19T02:36:29.318Z,8.27
2022-12-19T02:39:20.575Z,7.50
2022-12-19T02:41:56.500Z,6.15
2022-12-19T02:44:45.426Z,5.90
2022-12-19T02:47:20.724Z,7.32
2022-12-19T02:49:52.513Z,5.45
2022-12-19T02:52:30.234Z,7.55
2022-12-19T03:03:48.780Z,7.30
2022-12-19T03:06:39.917Z,6.93
2022-12-19T03:09:16.002Z,7.80
2022-12-19T03:17:25.819Z,5.37
2022-12-19T03:19:55.140Z,5.25
2022-12-19T03:26:38.055Z,7.05
2022-12-19T03:29:36.735Z,6.90
2022-12-19T03:32:09.972Z,8.03
2022-12-19T03:34:50.598Z,8.35
2022-12-19T03:37:30.870Z,8.48
2022-12-19T03:40:09.517Z,13.07
2022-12-19T04:03:33.596Z,12.77
2022-12-19T04:06:30.379Z,14.30
2022-12-19T04:09:03.207Z,12.82
2022-12-19T04:11:43.493Z,14.30
2022-12-19T04:31:40.582Z,9.95
2022-12-19T04:34:14.104Z,11.02
2022-12-19T04:36:44.379Z,11.73
2022-12-19T04:48:44.245Z,10.75
2022-12-19T04:51:11.577Z,11.98
2022-12-19T05:18:16.514Z,9.40
2022-12-19T05:20:52.886Z,11.30
2022-12-19T06:44:05.261Z,12.77
2022-12-19T06:46:34.935Z,18.23
2022-12-19T06:49:12.097Z,19.63
2022-12-19T06:51:45.137Z,19.17
2022-12-19T06:58:47.945Z,12.73
2022-12-19T07:01:34.588Z,16.13
2022-12-19T07:04:18.201Z,17.05
2022-12-19T07:07:07.410Z,18.48
2022-12-19T07:09:42.669Z,17.93
2022-12-19T07:12:09.923Z,19.05
2022-12-19T07:14:55.932Z,19.42
2022-12-19T07:17:29.189Z,19.00
2022-12-19T07:20:09.038Z,17.27
2022-12-19T07:22:44.605Z,19.33
2022-12-19T07:29:43.555Z,17.45
2022-12-19T07:32:13.806Z,19.20
2022-12-19T07:34:47.873Z,17.77
2022-12-19T07:37:18.367Z,18.07
2022-12-19T07:39:53.316Z,22.85
2022-12-19T07:42:27.040Z,22.25
2022-12-19T07:45:15.734Z,26.02
2022-12-19T07:47:46.708Z,21.83
2022-12-19T07:50:18.522Z,22.73
2022-12-19T07:52:48.724Z,22.65
2022-12-19T07:55:21.013Z,18.88
2022-12-19T07:57:58.145Z,17.25
2022-12-19T08:00:28.099Z,19.42
2022-12-19T08:03:02.082Z,16.73
2022-12-19T08:05:35.504Z,16.23
2022-12-19T08:08:07.827Z,15.48
2022-12-19T08:10:42.130Z,15.57
2022-12-19T08:13:19.447Z,14.55
2022-12-19T08:15:48.205Z,14.00
2022-12-19T08:18:24.512Z,12.60
2022-12-19T08:34:17.281Z,12.07
2022-12-19T08:37:05.168Z,11.30
2022-12-19T08:39:42.642Z,8.90
2022-12-19T08:42:25.907Z,13.32
2022-12-19T08:49:49.436Z,12.90
2022-12-19T08:52:24.803Z,14.15
2022-12-19T08:54:56.035Z,12.13
2022-12-19T08:57:26.729Z,13.55
2022-12-19T09:00:05.894Z,14.52
2022-12-19T09:02:34.243Z,14.63
2022-12-19T09:06:01.224Z,13.10
2022-12-19T09:07:56.852Z,13.80
2022-12-19T09:24:07.971Z,13.13
2022-12-19T09:26:39.494Z,14.35
2022-12-19T09:29:54.546Z,14.68
2022-12-19T09:32:25.495Z,15.63
2022-12-19T09:35:02.893Z,15.50
2022-12-19T09:37:34.955Z,15.90
2022-12-19T09:40:09.734Z,17.35
2022-12-19T09:42:44.912Z,14.13
2022-12-19T09:45:31.328Z,14.10
2022-12-19T09:48:08.048Z,13.47
2022-12-19T09:50:55.587Z,14.23
2022-12-19T09:53:59.505Z,12.98
2022-12-19T09:56:45.145Z,13.38
2022-12-19T09:59:42.859Z,13.80
2022-12-19T10:02:42.593Z,14.03
2022-12-19T10:06:33.141Z,14.45
2022-12-19T10:08:38.810Z,14.75
2022-12-19T10:12:38.106Z,14.60
2022-12-19T10:44:35.327Z,15.07
2022-12-19T10:47:16.254Z,12.27
2022-12-19T10:50:27.276Z,13.02
2022-12-19T10:53:07.410Z,13.45
2022-12-19T10:55:51.521Z,15.20
2022-12-19T10:58:44.451Z,15.32
2022-12-19T11:01:17.890Z,14.75
2022-12-19T11:03:51.665Z,14.60
2022-12-19T11:06:35.371Z,13.40
2022-12-19T11:09:32.521Z,14.97
2022-12-19T11:14:44.284Z,15.23
2022-12-19T11:19:47.138Z,15.00
2022-12-19T11:26:39.620Z,13.38
2022-12-19T11:29:38.649Z,14.75
2022-12-19T11:29:43.816Z,15.35
2022-12-19T11:30:46.945Z,14.83
2022-12-19T11:31:43.721Z,15.63
2022-12-19T11:33:43.077Z,16.15
2022-12-19T11:36:51.397Z,15.48
2022-12-19T11:39:46.003Z,15.40
2022-12-19T11:42:32.870Z,14.95
2022-12-19T11:45:47.242Z,14.60
2022-12-19T11:48:29.695Z,14.05
2022-12-19T11:51:06.529Z,14.90
2022-12-19T11:53:49.477Z,15.70
2022-12-19T11:56:36.461Z,13.82
2022-12-19T11:59:20.055Z,13.55
2022-12-19T12:02:02.181Z,15.95
2022-12-19T12:04:42.571Z,14.77
2022-12-19T12:08:21.249Z,13.57
2022-12-19T12:15:34.533Z,13.43
2022-12-19T12:16:48.397Z,13.77
2022-12-19T12:28:40.192Z,15.02
2022-12-19T12:31:18.383Z,13.60
2022-12-19T12:31:27.455Z,13.20
2022-12-19T12:31:43.659Z,15.23
2022-12-19T12:31:52.735Z,12.88
2022-12-19T12:35:50.039Z,14.05
2022-12-19T12:39:46.586Z,10.27
2022-12-19T12:42:36.921Z,12.38
2022-12-19T12:45:35.029Z,11.95
2022-12-19T12:48:31.761Z,15.30
2022-12-19T12:51:09.336Z,13.65
2022-12-19T12:53:54.464Z,13.20
2022-12-19T12:56:35.952Z,16.27
2022-12-19T12:59:24.479Z,15.70
2022-12-19T13:02:17.397Z,15.05
2022-12-19T13:05:22.556Z,14.07
2022-12-19T13:07:54.992Z,14.27
2022-12-19T13:10:31.784Z,14.85
2022-12-19T13:13:15.714Z,12.13
2022-12-19T13:15:51.024Z,12.20
2022-12-19T13:18:50.592Z,12.93
2022-12-19T13:21:46.337Z,13.97
2022-12-19T13:24:28.992Z,14.88
2022-12-19T13:26:56.254Z,12.98
2022-12-19T13:30:20.943Z,13.85
2022-12-19T13:42:30.239Z,12.07
2022-12-19T13:45:11.742Z,14.07
2022-12-19T13:47:54.043Z,13.35
2022-12-19T13:50:26.046Z,13.02
2022-12-19T13:53:09.085Z,14.57
2022-12-19T13:55:40.525Z,12.90
2022-12-19T13:58:29.425Z,13.45
2022-12-19T14:01:36.136Z,14.32
2022-12-19T14:04:21.613Z,14.15
2022-12-19T14:07:39.264Z,14.27
2022-12-19T14:11:33.436Z,11.30
2022-12-19T14:13:57.388Z,13.20
2022-12-19T14:16:35.018Z,16.08
2022-12-19T14:19:25.943Z,15.13
2022-12-19T14:22:23.134Z,15.33
2022-12-19T14:27:14.112Z,16.63
2022-12-19T14:28:26.551Z,16.17
2022-12-19T14:31:10.580Z,14.85
2022-12-19T14:34:35.494Z,16.83
2022-12-19T14:36:49.576Z,15.13
2022-12-19T14:39:29.465Z,15.10
2022-12-19T14:43:56.944Z,15.68
2022-12-19T14:54:02.608Z,15.98
2022-12-19T14:54:07.204Z,16.38
2022-12-19T14:54:50.557Z,15.40
2022-12-19T14:56:26.832Z,18.05
2022-12-19T14:59:00.980Z,18.55
2022-12-19T15:01:38.012Z,18.50
2022-12-19T15:04:48.265Z,20.05
2022-12-19T15:07:43.685Z,20.60
2022-12-19T15:11:09.051Z,20.40
2022-12-19T15:14:54.203Z,19.80
2022-12-19T15:16:40.433Z,21.00
2022-12-19T15:19:21.213Z,21.98
2022-12-19T15:22:09.280Z,24.00
2022-12-19T15:24:49.493Z,24.58
2022-12-19T15:27:26.280Z,33.58
2022-12-19T15:29:58.425Z,47.45
2022-12-19T15:32:32.172Z,42.33
2022-12-19T15:35:04.387Z,40.50
2022-12-19T15:37:31.699Z,37.10
2022-12-19T15:39:58.854Z,36.78
2022-12-19T15:42:27.287Z,37.88
2022-12-19T15:45:07.081Z,38.88
2022-12-19T15:47:39.648Z,35.87
2022-12-19T15:50:31.878Z,34.20
2022-12-19T15:53:16.812Z,35.75
2022-12-19T15:55:57.317Z,35.58
2022-12-19T15:58:26.703Z,37.83
2022-12-19T16:01:01.814Z,36.30
2022-12-19T16:03:34.361Z,35.92
2022-12-19T16:06:02.666Z,36.35
2022-12-19T16:08:42.246Z,33.47
2022-12-19T16:11:26.451Z,33.03
2022-12-19T16:14:02.850Z,33.00
2022-12-19T16:16:33.111Z,31.55
2022-12-19T16:19:24.986Z,31.23
2022-12-19T16:22:02.892Z,32.97
2022-12-19T16:24:30.299Z,35.20
2022-12-19T16:27:02.178Z,32.50
2022-12-19T16:29:59.143Z,33.60
2022-12-19T16:32:37.516Z,35.47
2022-12-19T16:35:10.636Z,37.13
2022-12-19T16:37:47.712Z,35.40
2022-12-19T16:40:45.605Z,33.70
2022-12-19T16:43:21.663Z,33.58
2022-12-19T16:46:01.205Z,33.25
2022-12-19T16:48:35.999Z,32.17
2022-12-19T16:51:27.167Z,25.88
2022-12-19T16:54:02.885Z,23.43
2022-12-19T16:56:38.284Z,24.10
2022-12-19T16:59:32.430Z,22.50
2022-12-19T17:02:36.763Z,22.92
2022-12-19T17:05:07.978Z,21.90
2022-12-19T17:07:37.750Z,20.50
2022-12-19T17:10:36.892Z,22.95
2022-12-19T17:13:10.514Z,21.90
2022-12-19T17:15:56.822Z,18.15
2022-12-19T17:18:43.886Z,18.15
2022-12-19T17:21:17.350Z,15.23
2022-12-19T17:23:48.230Z,16.63
2022-12-19T17:26:18.047Z,14.90
2022-12-19T17:28:59.448Z,14.70
2022-12-19T17:31:28.659Z,13.77
2022-12-19T17:56:01.557Z,12.73
2022-12-19T18:17:18.684Z,12.83
2022-12-19T18:25:28.618Z,10.82
2022-12-19T18:28:27.600Z,12.30
2022-12-19T18:31:07.360Z,13.55
2022-12-19T18:33:47.808Z,13.00
2022-12-19T18:36:48.559Z,14.75
2022-12-19T18:39:30.901Z,13.88
2022-12-19T18:46:27.384Z,13.73
2022-12-19T18:53:21.980Z,14.18
2022-12-19T18:55:56.225Z,16.45
2022-12-19T18:58:24.651Z,13.73
2022-12-19T19:01:03.320Z,16.80
2022-12-19T19:03:53.019Z,14.57
2022-12-19T19:06:48.346Z,12.45
2022-12-19T19:09:20.456Z,14.57
2022-12-19T19:12:18.057Z,12.48
2022-12-19T19:14:48.828Z,14.30
2022-12-19T19:17:39.379Z,12.87
2022-12-19T19:20:12.806Z,12.52
2022-12-19T19:22:52.011Z,13.73
2022-12-19T19:25:25.105Z,14.13
2022-12-19T19:36:42.102Z,14.43
2022-12-19T19:39:13.909Z,15.88
2022-12-19T19:41:44.739Z,13.07
2022-12-19T19:45:31.584Z,13.48
2022-12-19T19:48:08.425Z,13.57
2022-12-19T19:50:38.060Z,15.70
2022-12-19T19:53:28.390Z,14.02
2022-12-19T19:56:03.853Z,13.45
2022-12-19T19:58:33.220Z,15.23
2022-12-19T20:01:10.900Z,12.80
2022-12-19T20:03:49.549Z,13.77
2022-12-19T20:06:20.514Z,14.15
2022-12-19T20:32:07.046Z,11.48
2022-12-19T20:34:36.713Z,12.45
2022-12-19T20:37:11.081Z,12.90
2022-12-19T20:39:44.963Z,15.23
2022-12-19T20:42:19.665Z,13.85
2022-12-19T20:44:50.104Z,13.40
2022-12-19T20:47:26.555Z,14.07
2022-12-19T20:50:18.733Z,13.27
2022-12-19T20:52:48.220Z,14.02
2022-12-19T20:55:17.774Z,13.18
2022-12-19T20:57:57.918Z,13.27
2022-12-19T21:00:40.850Z,12.02
2022-12-19T21:03:27.654Z,13.60
2022-12-19T21:05:56.958Z,15.50
2022-12-19T21:08:25.571Z,12.77
2022-12-19T21:11:09.211Z,14.75
2022-12-19T21:13:48.353Z,12.15
2022-12-19T21:16:26.327Z,12.77
2022-12-19T21:18:59.068Z,12.40
2022-12-19T21:21:31.863Z,13.07
2022-12-19T21:24:06.356Z,12.60
2022-12-19T21:26:38.828Z,13.57
2022-12-19T21:29:16.836Z,13.40
2022-12-19T21:31:47.185Z,13.65
2022-12-19T21:34:37.049Z,13.32
2022-12-19T21:37:14.381Z,11.48
2022-12-19T21:39:58.946Z,11.55
2022-12-19T21:42:32.634Z,11.47
2022-12-19T21:45:02.806Z,10.82
2022-12-19T21:47:29.947Z,10.73
2022-12-19T21:50:02.313Z,11.57
2022-12-19T21:52:33.653Z,11.88
2022-12-19T21:55:08.386Z,11.33
2022-12-19T21:57:42.465Z,10.98
2022-12-19T22:00:18.632Z,9.50
2022-12-19T22:03:15.994Z,9.32
2022-12-19T22:05:48.226Z,11.48
2022-12-19T22:17:33.514Z,8.80
2022-12-19T22:20:04.856Z,8.02
2022-12-19T22:27:12.737Z,8.70
2022-12-19T22:29:41.971Z,8.63
2022-12-19T22:32:20.221Z,10.32
2022-12-19T22:34:52.761Z,9.85
2022-12-19T22:37:22.237Z,10.05
2022-12-19T22:40:01.830Z,9.60
2022-12-19T22:42:34.114Z,7.93
2022-12-19T22:45:26.797Z,6.88
2022-12-19T22:47:59.773Z,10.07
2022-12-19T22:50:34.769Z,9.02
2022-12-19T22:53:12.936Z,9.40
2022-12-19T22:55:48.563Z,8.32
2022-12-19T22:58:22.955Z,9.68
2022-12-19T23:00:52.584Z,8.98
2022-12-19T23:03:28.403Z,8.75
2022-12-19T23:06:11.187Z,7.97
2022-12-19T23:08:42.221Z,8.57
2022-12-19T23:11:17.542Z,8.00
2022-12-19T23:14:13.989Z,9.20
2022-12-19T23:17:12.932Z,8.30
2022-12-19T23:19:49.046Z,8.33
2022-12-19T23:22:23.653Z,7.38
2022-12-19T23:24:57.626Z,6.90
2022-12-19T23:28:44.304Z,5.95
2022-12-19T23:31:14.061Z,8.00
2022-12-19T23:33:51.838Z,7.17
2022-12-19T23:39:26.650Z,7.20
2022-12-19T23:42:00.475Z,6.75
2022-12-19T23:44:33.575Z,8.43
2022-12-19T23:47:05.375Z,6.40
2022-12-19T23:49:46.618Z,6.95
2022-12-19T23:52:16.842Z,6.40
2022-12-19T23:54:50.756Z,5.80
2022-12-19T23:57:27.810Z,6.65
2022-12-19T23:59:58.635Z,6.07
